createdAt,value
2018-07-06T00:00:47.583Z,22.50
2018-07-06T00:03:27.294Z,22.50
2018-07-06T00:06:06.990Z,22.30
2018-07-06T00:08:46.638Z,22.40
2018-07-06T00:11:26.034Z,22.40
2018-07-06T00:14:05.733Z,22.50
2018-07-06T00:16:45.573Z,22.50
2018-07-06T00:19:25.207Z,22.60
2018-07-06T00:22:04.934Z,22.50
2018-07-06T00:24:44.678Z,22.60
2018-07-06T00:27:24.376Z,22.50
2018-07-06T00:30:03.842Z,22.50
2018-07-06T00:32:43.305Z,22.50
2018-07-06T00:35:22.819Z,22.30
2018-07-06T00:38:02.519Z,22.40
2018-07-06T00:40:42.154Z,22.40
2018-07-06T00:43:21.723Z,22.50
2018-07-06T00:46:01.337Z,22.20
2018-07-06T00:48:40.855Z,22.20
2018-07-06T00:51:20.418Z,22.10
2018-07-06T00:53:59.933Z,22.20
2018-07-06T00:56:39.497Z,22.30
2018-07-06T00:59:19.265Z,22.30
2018-07-06T01:01:59.021Z,22.20
2018-07-06T01:04:38.715Z,22.20
2018-07-06T01:07:18.336Z,22.20
2018-07-06T01:09:57.937Z,22.20
2018-07-06T01:12:42.915Z,22.20
2018-07-06T01:15:27.857Z,22.20
2018-07-06T01:18:07.862Z,22.10
2018-07-06T01:20:47.458Z,22.00
2018-07-06T01:23:27.178Z,21.90
2018-07-06T01:26:06.935Z,22.00
2018-07-06T01:28:47.030Z,21.90
2018-07-06T01:31:26.776Z,22.10
2018-07-06T01:34:06.523Z,22.10
2018-07-06T01:36:46.198Z,22.00
2018-07-06T01:39:25.964Z,22.00
2018-07-06T01:42:05.588Z,22.10
2018-07-06T01:44:45.647Z,22.00
2018-07-06T01:47:25.670Z,21.70
2018-07-06T01:50:05.507Z,21.60
2018-07-06T01:52:44.907Z,21.70
2018-07-06T01:55:25.189Z,21.80
2018-07-06T01:58:04.709Z,21.90
2018-07-06T02:00:44.671Z,21.90
2018-07-06T02:03:24.317Z,22.00
2018-07-06T02:06:03.807Z,22.00
2018-07-06T02:08:43.662Z,21.90
2018-07-06T02:11:23.214Z,21.90
2018-07-06T02:14:02.760Z,21.80
2018-07-06T02:16:42.428Z,21.80
2018-07-06T02:19:22.121Z,21.80
2018-07-06T02:22:01.857Z,21.70
2018-07-06T02:24:41.675Z,21.70
2018-07-06T02:27:21.399Z,21.50
2018-07-06T02:30:01.350Z,21.60
2018-07-06T02:32:40.931Z,21.70
2018-07-06T02:35:20.636Z,21.80
2018-07-06T02:38:00.315Z,21.70
2018-07-06T02:40:40.119Z,21.60
2018-07-06T02:43:19.792Z,21.60
2018-07-06T02:45:59.783Z,21.60
2018-07-06T02:48:39.519Z,21.60
2018-07-06T02:51:19.088Z,21.60
2018-07-06T02:53:58.834Z,21.60
2018-07-06T02:56:38.677Z,21.60
2018-07-06T02:59:18.363Z,21.60
2018-07-06T03:01:58.343Z,21.60
2018-07-06T03:07:11.359Z,21.60
2018-07-06T03:09:50.970Z,21.60
2018-07-06T03:12:30.519Z,21.50
2018-07-06T03:15:10.312Z,21.40
2018-07-06T03:17:50.207Z,21.50
2018-07-06T03:20:29.959Z,21.50
2018-07-06T03:23:09.543Z,21.40
2018-07-06T03:25:49.315Z,21.40
2018-07-06T03:28:29.254Z,21.40
2018-07-06T03:31:08.818Z,21.40
2018-07-06T03:33:48.687Z,21.40
2018-07-06T03:36:28.267Z,21.40
2018-07-06T03:39:07.939Z,21.40
2018-07-06T03:41:47.713Z,21.30
2018-07-06T03:44:27.366Z,21.30
2018-07-06T03:47:06.931Z,21.30
2018-07-06T03:49:46.741Z,21.20
2018-07-06T03:52:26.341Z,21.10
2018-07-06T03:55:06.346Z,21.20
2018-07-06T03:57:45.942Z,21.20
2018-07-06T04:00:25.466Z,21.20
2018-07-06T04:03:05.132Z,21.20
2018-07-06T04:05:44.953Z,21.20
2018-07-06T04:08:24.634Z,21.20
2018-07-06T04:11:04.154Z,21.30
2018-07-06T04:13:44.285Z,21.30
2018-07-06T04:16:24.051Z,21.30
2018-07-06T04:19:12.538Z,21.30
2018-07-06T04:21:53.579Z,21.30
2018-07-06T04:24:37.367Z,21.20
2018-07-06T04:27:17.175Z,21.20
2018-07-06T04:29:56.743Z,21.20
2018-07-06T04:32:36.558Z,21.10
2018-07-06T04:35:16.311Z,21.20
2018-07-06T04:37:56.210Z,21.20
2018-07-06T04:40:35.854Z,21.20
2018-07-06T04:43:15.571Z,21.20
2018-07-06T04:45:55.348Z,21.20
2018-07-06T04:48:35.224Z,21.30
2018-07-06T04:51:14.999Z,21.40
2018-07-06T04:53:54.746Z,21.40
2018-07-06T04:56:34.278Z,21.50
2018-07-06T04:59:14.024Z,21.40
2018-07-06T05:01:53.891Z,21.50
2018-07-06T05:04:33.550Z,21.50
2018-07-06T05:07:13.247Z,21.50
2018-07-06T05:12:26.536Z,21.50
2018-07-06T05:15:06.402Z,21.70
2018-07-06T05:17:46.547Z,21.80
2018-07-06T05:20:26.191Z,21.90
2018-07-06T05:23:05.747Z,21.90
2018-07-06T05:25:45.359Z,21.90
2018-07-06T05:28:25.320Z,21.90
2018-07-06T05:31:04.878Z,22.10
2018-07-06T05:33:44.646Z,22.20
2018-07-06T05:36:24.227Z,22.30
2018-07-06T05:39:05.008Z,22.50
2018-07-06T05:41:44.587Z,22.60
2018-07-06T05:44:24.200Z,22.60
2018-07-06T05:47:03.747Z,22.50
2018-07-06T05:49:43.303Z,22.60
2018-07-06T05:52:23.009Z,22.60
2018-07-06T05:55:02.607Z,22.70
2018-07-06T05:57:42.526Z,22.60
2018-07-06T06:00:22.159Z,22.60
2018-07-06T06:03:02.022Z,22.70
2018-07-06T06:05:41.530Z,22.70
2018-07-06T06:08:08.839Z,22.80
2018-07-06T06:10:37.171Z,22.80
2018-07-06T06:13:06.508Z,22.80
2018-07-06T06:15:34.876Z,22.90
2018-07-06T06:18:03.203Z,23.00
2018-07-06T06:20:31.731Z,23.00
2018-07-06T06:23:00.047Z,23.00
2018-07-06T06:25:28.406Z,23.00
2018-07-06T06:27:56.749Z,23.00
2018-07-06T06:30:25.155Z,23.10
2018-07-06T06:32:53.568Z,23.10
2018-07-06T06:35:21.927Z,23.10
2018-07-06T06:37:50.302Z,23.20
2018-07-06T06:40:18.619Z,23.20
2018-07-06T06:42:47.008Z,23.20
2018-07-06T06:45:15.367Z,23.20
2018-07-06T06:47:43.726Z,23.30
2018-07-06T06:52:40.359Z,23.40
2018-07-06T06:55:08.712Z,23.50
2018-07-06T06:57:37.267Z,23.50
2018-07-06T07:00:05.694Z,23.50
2018-07-06T07:02:34.039Z,23.50
2018-07-06T07:05:02.387Z,23.50
2018-07-06T07:07:30.802Z,23.60
2018-07-06T07:09:59.167Z,23.60
2018-07-06T07:12:27.555Z,23.70
2018-07-06T07:14:56.048Z,23.70
2018-07-06T07:17:24.686Z,23.70
2018-07-06T07:19:53.057Z,23.80
2018-07-06T07:22:21.568Z,23.90
2018-07-06T07:24:49.955Z,23.90
2018-07-06T07:27:18.338Z,23.90
2018-07-06T07:29:46.711Z,23.90
2018-07-06T07:32:15.030Z,23.90
2018-07-06T07:34:43.408Z,24.00
2018-07-06T07:37:11.772Z,24.00
2018-07-06T07:39:40.164Z,24.10
2018-07-06T07:42:08.548Z,24.20
2018-07-06T07:44:36.927Z,24.30
2018-07-06T07:47:05.286Z,24.30
2018-07-06T07:49:33.634Z,24.40
2018-07-06T07:52:13.587Z,24.50
2018-07-06T07:54:49.411Z,24.60
2018-07-06T07:57:18.624Z,24.90
2018-07-06T07:59:47.411Z,25.10
2018-07-06T08:02:16.143Z,25.50
2018-07-06T08:04:44.554Z,25.90
2018-07-06T08:07:13.049Z,26.30
2018-07-06T08:09:41.479Z,26.70
2018-07-06T08:12:09.883Z,27.30
2018-07-06T08:14:38.318Z,28.00
2018-07-06T08:17:06.717Z,28.40
2018-07-06T08:19:35.243Z,28.90
2018-07-06T08:22:03.859Z,29.50
2018-07-06T08:24:32.206Z,29.90
2018-07-06T08:27:00.554Z,30.10
2018-07-06T08:29:29.055Z,30.50
2018-07-06T08:31:57.428Z,30.70
2018-07-06T08:34:37.207Z,31.00
2018-07-06T08:37:49.774Z,31.00
2018-07-06T08:40:18.879Z,31.20
2018-07-06T08:42:48.741Z,31.30
2018-07-06T08:45:17.187Z,31.20
2018-07-06T08:47:45.996Z,31.10
2018-07-06T08:50:14.365Z,31.20
2018-07-06T08:52:43.955Z,31.10
2018-07-06T08:55:12.563Z,30.90
2018-07-06T08:57:41.955Z,30.90
2018-07-06T09:00:11.011Z,30.80
2018-07-06T09:02:39.367Z,30.80
2018-07-06T09:05:08.279Z,30.50
2018-07-06T09:07:36.691Z,30.20
2018-07-06T09:10:05.037Z,30.00
2018-07-06T09:12:33.576Z,29.50
2018-07-06T09:15:02.436Z,29.40
2018-07-06T09:17:30.869Z,29.10
2018-07-06T09:20:00.321Z,28.70
2018-07-06T09:22:28.716Z,28.50
2018-07-06T09:24:58.452Z,28.30
2018-07-06T09:27:26.774Z,28.20
2018-07-06T09:29:55.166Z,28.20
2018-07-06T09:32:23.504Z,28.00
2018-07-06T09:34:51.881Z,27.80
2018-07-06T09:37:20.256Z,27.80
2018-07-06T09:42:17.756Z,27.60
2018-07-06T09:44:46.162Z,27.70
2018-07-06T09:47:14.528Z,27.70
2018-07-06T09:49:43.039Z,27.70
2018-07-06T09:52:11.395Z,27.70
2018-07-06T09:54:39.781Z,27.60
2018-07-06T09:57:08.190Z,27.90
2018-07-06T09:59:36.570Z,28.10
2018-07-06T10:02:05.113Z,28.20
2018-07-06T10:04:33.503Z,28.40
2018-07-06T10:07:01.875Z,28.50
2018-07-06T10:09:30.248Z,28.70
2018-07-06T10:11:58.633Z,28.90
2018-07-06T10:14:27.043Z,29.10
2018-07-06T10:16:55.407Z,29.40
2018-07-06T10:19:23.794Z,29.50
2018-07-06T10:21:52.230Z,29.70
2018-07-06T10:24:20.602Z,29.90
2018-07-06T10:26:49.002Z,30.00
2018-07-06T10:30:34.336Z,30.00
2018-07-06T10:33:02.764Z,30.00
2018-07-06T10:35:31.487Z,30.20
2018-07-06T10:38:00.118Z,30.30
2018-07-06T10:40:28.546Z,30.50
2018-07-06T10:42:56.939Z,30.80
2018-07-06T10:45:25.334Z,31.00
2018-07-06T10:47:53.715Z,30.90
2018-07-06T10:50:22.099Z,30.80
2018-07-06T10:52:50.513Z,30.60
2018-07-06T10:55:18.859Z,30.30
2018-07-06T10:57:47.245Z,30.00
2018-07-06T11:00:15.623Z,29.70
2018-07-06T11:02:44.027Z,29.40
2018-07-06T11:05:12.394Z,29.10
2018-07-06T11:07:40.735Z,28.90
2018-07-06T11:10:09.262Z,28.60
2018-07-06T11:12:37.599Z,28.30
2018-07-06T11:15:05.964Z,28.20
2018-07-06T11:17:34.316Z,27.80
2018-07-06T11:20:02.684Z,27.70
2018-07-06T11:22:31.047Z,27.60
2018-07-06T11:24:59.618Z,27.50
2018-07-06T11:27:27.963Z,27.40
2018-07-06T11:29:56.355Z,27.40
2018-07-06T11:32:24.707Z,27.40
2018-07-06T11:34:53.245Z,27.40
2018-07-06T11:37:21.564Z,27.40
2018-07-06T11:39:49.906Z,27.40
2018-07-06T11:42:18.260Z,27.40
2018-07-06T11:44:46.621Z,27.40
2018-07-06T11:47:14.971Z,27.30
2018-07-06T11:49:43.327Z,27.30
2018-07-06T11:52:11.683Z,27.20
2018-07-06T11:54:40.067Z,27.10
2018-07-06T11:57:08.435Z,27.10
2018-07-06T11:59:36.748Z,27.10
2018-07-06T12:02:05.253Z,27.10
2018-07-06T12:04:33.609Z,27.10
2018-07-06T12:07:01.966Z,27.10
2018-07-06T12:09:30.459Z,27.10
2018-07-06T12:11:58.819Z,27.20
2018-07-06T12:14:27.139Z,27.20
2018-07-06T12:16:55.574Z,27.30
2018-07-06T12:19:23.923Z,27.30
2018-07-06T12:21:52.268Z,27.40
2018-07-06T12:24:20.627Z,27.40
2018-07-06T12:26:48.966Z,27.50
2018-07-06T12:29:17.475Z,27.50
2018-07-06T12:31:45.819Z,27.40
2018-07-06T12:34:14.185Z,27.40
2018-07-06T12:36:42.710Z,27.30
2018-07-06T12:39:11.030Z,27.20
2018-07-06T12:41:39.427Z,27.20
2018-07-06T12:44:07.758Z,27.10
2018-07-06T12:46:36.102Z,27.10
2018-07-06T12:49:04.453Z,27.10
2018-07-06T12:51:32.978Z,27.10
2018-07-06T12:54:01.373Z,27.10
2018-07-06T12:56:29.712Z,27.10
2018-07-06T12:59:05.367Z,27.10
2018-07-06T13:01:33.771Z,27.10
2018-07-06T13:04:02.159Z,27.00
2018-07-06T13:06:30.526Z,27.00
2018-07-06T13:11:26.956Z,26.90
2018-07-06T13:13:55.343Z,26.90
2018-07-06T13:16:23.704Z,26.90
2018-07-06T13:18:52.052Z,26.90
2018-07-06T13:21:20.461Z,26.80
2018-07-06T13:23:48.816Z,26.80
2018-07-06T13:26:17.303Z,26.70
2018-07-06T13:28:45.688Z,26.80
2018-07-06T13:31:14.048Z,26.80
2018-07-06T13:33:42.457Z,26.80
2018-07-06T13:36:10.809Z,26.80
2018-07-06T13:38:39.187Z,26.80
2018-07-06T13:41:07.571Z,26.80
2018-07-06T13:43:35.963Z,26.80
2018-07-06T13:46:04.555Z,26.80
2018-07-06T13:48:32.932Z,26.90
2018-07-06T13:51:01.295Z,26.90
2018-07-06T13:53:29.701Z,26.90
2018-07-06T13:55:58.105Z,27.00
2018-07-06T13:58:26.461Z,26.90
2018-07-06T14:00:54.847Z,26.90
2018-07-06T14:03:23.194Z,27.00
2018-07-06T14:05:51.730Z,27.00
2018-07-06T14:08:20.074Z,27.10
2018-07-06T14:10:48.447Z,27.10
2018-07-06T14:13:16.786Z,27.20
2018-07-06T14:15:45.148Z,27.20
2018-07-06T14:18:13.505Z,27.20
2018-07-06T14:20:42.167Z,27.20
2018-07-06T14:23:10.645Z,27.10
2018-07-06T14:25:38.987Z,27.10
2018-07-06T14:28:07.402Z,27.10
2018-07-06T14:30:35.761Z,27.10
2018-07-06T14:33:04.097Z,27.10
2018-07-06T14:35:33.150Z,27.10
2018-07-06T14:38:01.507Z,27.00
2018-07-06T14:40:29.951Z,27.00
2018-07-06T14:42:58.320Z,27.00
2018-07-06T14:45:26.651Z,26.90
2018-07-06T14:47:54.998Z,26.90
2018-07-06T14:50:23.375Z,26.90
2018-07-06T14:52:52.007Z,26.90
2018-07-06T14:55:20.351Z,26.90
2018-07-06T14:57:48.868Z,26.90
2018-07-06T15:00:17.186Z,26.90
2018-07-06T15:02:45.631Z,26.90
2018-07-06T15:05:14.199Z,26.90
2018-07-06T15:07:42.563Z,26.90
2018-07-06T15:10:11.367Z,26.90
2018-07-06T15:12:39.935Z,26.90
2018-07-06T15:15:08.327Z,26.90
2018-07-06T15:17:36.922Z,26.90
2018-07-06T15:20:05.312Z,26.90
2018-07-06T15:22:33.667Z,26.90
2018-07-06T15:25:02.055Z,26.90
2018-07-06T15:27:30.448Z,26.90
2018-07-06T15:29:58.835Z,26.90
2018-07-06T15:32:27.395Z,26.90
2018-07-06T15:34:55.737Z,26.90
2018-07-06T15:37:24.099Z,27.00
2018-07-06T15:39:52.668Z,27.00
2018-07-06T15:42:21.053Z,27.00
2018-07-06T15:44:49.413Z,26.90
2018-07-06T15:47:17.855Z,27.00
2018-07-06T15:49:46.394Z,26.90
2018-07-06T15:52:14.760Z,27.00
2018-07-06T15:54:43.449Z,26.90
2018-07-06T15:57:11.887Z,26.90
2018-07-06T15:59:40.234Z,26.90
2018-07-06T16:02:08.640Z,26.90
2018-07-06T16:04:37.069Z,26.90
2018-07-06T16:07:05.427Z,26.90
2018-07-06T16:09:33.941Z,26.90
2018-07-06T16:12:02.292Z,26.80
2018-07-06T16:14:30.672Z,26.70
2018-07-06T16:16:59.068Z,26.70
2018-07-06T16:19:27.548Z,26.60
2018-07-06T16:21:55.868Z,26.60
2018-07-06T16:24:24.206Z,26.60
2018-07-06T16:26:52.581Z,26.50
2018-07-06T16:29:20.953Z,26.50
2018-07-06T16:31:49.349Z,26.50
2018-07-06T16:34:17.719Z,26.60
2018-07-06T16:36:46.259Z,26.50
2018-07-06T16:39:14.844Z,26.50
2018-07-06T16:41:43.210Z,26.50
2018-07-06T16:44:11.735Z,26.50
2018-07-06T16:46:40.131Z,26.50
2018-07-06T16:49:08.507Z,26.60
2018-07-06T16:51:37.018Z,26.60
2018-07-06T16:54:05.404Z,26.70
2018-07-06T16:56:33.763Z,26.70
2018-07-06T16:59:02.142Z,26.70
2018-07-06T17:01:30.502Z,26.70
2018-07-06T17:03:58.912Z,26.70
2018-07-06T17:06:27.304Z,26.70
2018-07-06T17:08:55.873Z,26.80
2018-07-06T17:11:24.247Z,26.70
2018-07-06T17:13:52.697Z,26.80
2018-07-06T17:16:21.033Z,26.70
2018-07-06T17:18:49.448Z,26.70
2018-07-06T17:21:17.811Z,26.70
2018-07-06T17:23:46.256Z,26.70
2018-07-06T17:26:14.784Z,26.70
2018-07-06T17:28:43.161Z,26.70
2018-07-06T17:33:39.619Z,26.60
2018-07-06T17:36:07.986Z,26.60
2018-07-06T17:38:36.539Z,26.60
2018-07-06T17:41:05.100Z,26.60
2018-07-06T17:43:33.535Z,26.60
2018-07-06T17:46:02.214Z,26.60
2018-07-06T17:48:30.640Z,26.50
2018-07-06T17:50:59.076Z,26.50
2018-07-06T17:53:27.463Z,26.50
2018-07-06T17:55:55.837Z,26.50
2018-07-06T17:58:24.191Z,26.50
2018-07-06T18:00:52.787Z,26.50
2018-07-06T18:03:21.328Z,26.50
2018-07-06T18:05:49.712Z,26.50
2018-07-06T18:08:18.130Z,26.50
2018-07-06T18:10:46.540Z,26.50
2018-07-06T18:13:14.942Z,26.50
2018-07-06T18:15:43.361Z,26.50
2018-07-06T18:18:11.799Z,26.40
2018-07-06T18:20:40.191Z,26.40
2018-07-06T18:23:08.778Z,26.40
2018-07-06T18:25:37.060Z,26.40
2018-07-06T18:28:05.464Z,26.40
2018-07-06T18:30:34.098Z,26.20
2018-07-06T18:33:02.418Z,26.20
2018-07-06T18:35:30.857Z,26.30
2018-07-06T18:37:59.386Z,26.30
2018-07-06T18:40:27.754Z,26.30
2018-07-06T18:42:56.099Z,26.20
2018-07-06T18:45:24.464Z,26.20
2018-07-06T18:47:52.833Z,26.20
2018-07-06T18:50:21.234Z,26.20
2018-07-06T18:52:49.612Z,26.20
2018-07-06T18:55:17.981Z,26.20
2018-07-06T18:57:46.533Z,26.10
2018-07-06T19:00:14.894Z,26.10
2018-07-06T19:02:43.235Z,26.00
2018-07-06T19:05:11.615Z,26.10
2018-07-06T19:07:40.149Z,26.10
2018-07-06T19:10:08.521Z,26.10
2018-07-06T19:12:36.959Z,26.00
2018-07-06T19:15:05.319Z,25.80
2018-07-06T19:17:33.681Z,25.60
2018-07-06T19:20:02.115Z,25.80
2018-07-06T19:22:30.623Z,25.90
2018-07-06T19:24:58.953Z,25.90
2018-07-06T19:27:27.352Z,25.80
2018-07-06T19:29:55.709Z,25.70
2018-07-06T19:32:24.095Z,25.70
2018-07-06T19:34:52.614Z,25.70
2018-07-06T19:37:21.004Z,25.70
2018-07-06T19:39:49.343Z,25.50
2018-07-06T19:42:17.956Z,25.40
2018-07-06T19:44:46.297Z,25.30
2018-07-06T19:47:14.624Z,25.30
2018-07-06T19:49:42.992Z,25.30
2018-07-06T19:52:11.340Z,25.10
2018-07-06T19:54:39.699Z,25.20
2018-07-06T19:57:08.324Z,25.20
2018-07-06T19:59:37.519Z,25.20
2018-07-06T20:02:06.027Z,25.20
2018-07-06T20:04:34.488Z,25.30
2018-07-06T20:07:02.831Z,25.20
2018-07-06T20:09:31.203Z,25.10
2018-07-06T20:11:59.572Z,25.00
2018-07-06T20:14:27.919Z,25.10
2018-07-06T20:16:57.341Z,25.00
2018-07-06T20:19:25.677Z,24.90
2018-07-06T20:21:54.395Z,24.90
2018-07-06T20:24:25.153Z,24.90
2018-07-06T20:26:53.532Z,24.90
2018-07-06T20:29:21.889Z,24.80
2018-07-06T20:31:50.398Z,24.90
2018-07-06T20:34:19.827Z,24.90
2018-07-06T20:36:48.192Z,24.70
2018-07-06T20:39:16.575Z,24.80
2018-07-06T20:41:44.981Z,24.70
2018-07-06T20:44:13.672Z,24.50
2018-07-06T20:46:42.237Z,24.30
2018-07-06T20:49:10.659Z,24.30
2018-07-06T20:51:39.248Z,24.20
2018-07-06T20:54:07.860Z,24.30
2018-07-06T20:56:36.218Z,24.20
2018-07-06T20:59:04.739Z,24.20
2018-07-06T21:01:33.130Z,24.10
2018-07-06T21:04:01.503Z,24.10
2018-07-06T21:06:30.117Z,24.00
2018-07-06T21:08:58.466Z,24.10
2018-07-06T21:11:26.835Z,24.00
2018-07-06T21:13:55.356Z,23.90
2018-07-06T21:16:24.229Z,23.90
2018-07-06T21:18:52.612Z,23.90
2018-07-06T21:21:26.186Z,23.70
2018-07-06T21:23:54.532Z,23.70
2018-07-06T21:26:22.926Z,23.80
2018-07-06T21:28:51.406Z,24.00
2018-07-06T21:31:19.776Z,24.20
2018-07-06T21:33:48.292Z,24.30
2018-07-06T21:36:16.631Z,24.20
2018-07-06T21:38:44.976Z,24.10
2018-07-06T21:41:13.340Z,23.90
2018-07-06T21:43:41.657Z,23.60
2018-07-06T21:46:10.021Z,23.60
2018-07-06T21:48:38.612Z,23.50
2018-07-06T21:51:06.996Z,23.10
2018-07-06T21:53:35.344Z,23.00
2018-07-06T21:56:03.800Z,23.20
2018-07-06T21:58:32.206Z,23.50
2018-07-06T22:01:00.583Z,23.40
2018-07-06T22:03:28.956Z,23.20
2018-07-06T22:05:57.314Z,23.20
2018-07-06T22:08:25.680Z,23.40
2018-07-06T22:10:54.067Z,23.50
2018-07-06T22:13:22.451Z,23.60
2018-07-06T22:15:50.835Z,23.60
2018-07-06T22:18:20.049Z,23.40
2018-07-06T22:20:49.546Z,23.30
2018-07-06T22:23:17.971Z,22.90
2018-07-06T22:25:46.347Z,22.90
2018-07-06T22:28:14.779Z,22.90
2018-07-06T22:30:43.122Z,23.00
2018-07-06T22:33:11.498Z,22.90
2018-07-06T22:35:39.842Z,23.00
2018-07-06T22:38:08.206Z,22.90
2018-07-06T22:40:36.757Z,22.90
2018-07-06T22:43:05.205Z,22.90
2018-07-06T22:45:33.583Z,22.80
2018-07-06T22:48:02.015Z,22.80
2018-07-06T22:50:30.387Z,22.70
2018-07-06T22:52:58.830Z,22.50
2018-07-06T22:55:27.187Z,22.40
2018-07-06T22:57:55.704Z,22.40
2018-07-06T23:00:24.079Z,22.40
2018-07-06T23:02:52.567Z,22.40
2018-07-06T23:05:21.089Z,22.20
2018-07-06T23:07:49.449Z,22.30
2018-07-06T23:10:17.805Z,22.30
2018-07-06T23:12:46.192Z,22.20
2018-07-06T23:15:14.552Z,22.20
2018-07-06T23:17:42.890Z,22.20
2018-07-06T23:20:11.281Z,22.10
2018-07-06T23:23:03.536Z,22.00
2018-07-06T23:25:34.099Z,21.90
2018-07-06T23:28:02.479Z,21.70
2018-07-06T23:30:30.898Z,21.90
2018-07-06T23:33:00.261Z,22.10
2018-07-06T23:35:28.768Z,22.10
2018-07-06T23:37:57.163Z,22.00
2018-07-06T23:40:25.557Z,21.70
2018-07-06T23:42:54.147Z,22.00
2018-07-06T23:45:22.818Z,22.30
2018-07-06T23:47:51.180Z,22.50
2018-07-06T23:50:19.930Z,22.70
2018-07-06T23:52:48.388Z,22.60
2018-07-06T23:55:17.008Z,22.50
2018-07-06T23:57:45.815Z,22.50
